sensor_id;sensor_type;location;lat;lon;timestamp;temperature;humidity
17599;DHT22;8918;52.092;5.232;2023-05-07T00:00:33;14.80;99.90
17599;DHT22;8918;52.092;5.232;2023-05-07T00:02:59;14.80;99.90
17599;DHT22;8918;52.092;5.232;2023-05-07T00:05:25;14.80;99.90
17599;DHT22;8918;52.092;5.232;2023-05-07T00:07:51;14.80;99.90
17599;DHT22;8918;52.092;5.232;2023-05-07T00:10:18;14.80;99.90
17599;DHT22;8918;52.092;5.232;2023-05-07T00:12:44;14.80;99.90
17599;DHT22;8918;52.092;5.232;2023-05-07T00:15:10;14.80;99.90
17599;DHT22;8918;52.092;5.232;2023-05-07T00:17:37;14.70;99.90
17599;DHT22;8918;52.092;5.232;2023-05-07T00:20:04;14.70;99.90
17599;DHT22;8918;52.092;5.232;2023-05-07T00:22:30;14.80;99.90
17599;DHT22;8918;52.092;5.232;2023-05-07T00:24:57;14.70;99.90
17599;DHT22;8918;52.092;5.232;2023-05-07T00:27:23;14.80;99.90
17599;DHT22;8918;52.092;5.232;2023-05-07T00:29:48;14.70;99.90
17599;DHT22;8918;52.092;5.232;2023-05-07T00:32:14;14.70;99.90
17599;DHT22;8918;52.092;5.232;2023-05-07T00:34:40;14.70;99.90
17599;DHT22;8918;52.092;5.232;2023-05-07T00:37:06;14.70;99.90
17599;DHT22;8918;52.092;5.232;2023-05-07T00:39:33;14.60;99.90
17599;DHT22;8918;52.092;5.232;2023-05-07T00:41:59;14.60;99.90
17599;DHT22;8918;52.092;5.232;2023-05-07T00:44:26;14.60;99.90
17599;DHT22;8918;52.092;5.232;2023-05-07T00:46:52;14.60;99.90
17599;DHT22;8918;52.092;5.232;2023-05-07T00:49:19;14.70;99.90
17599;DHT22;8918;52.092;5.232;2023-05-07T00:51:45;14.60;99.90
17599;DHT22;8918;52.092;5.232;2023-05-07T00:54:11;14.70;99.90
17599;DHT22;8918;52.092;5.232;2023-05-07T00:56:37;14.60;99.90
17599;DHT22;8918;52.092;5.232;2023-05-07T00:59:04;14.60;99.90
17599;DHT22;8918;52.092;5.232;2023-05-07T01:01:31;14.60;99.90
17599;DHT22;8918;52.092;5.232;2023-05-07T01:03:57;14.60;99.90
17599;DHT22;8918;52.092;5.232;2023-05-07T01:06:25;14.70;99.90
17599;DHT22;8918;52.092;5.232;2023-05-07T01:08:51;14.70;99.90
17599;DHT22;8918;52.092;5.232;2023-05-07T01:11:18;14.70;99.90
17599;DHT22;8918;52.092;5.232;2023-05-07T01:13:46;14.70;99.90
17599;DHT22;8918;52.092;5.232;2023-05-07T01:16:12;14.70;99.90
17599;DHT22;8918;52.092;5.232;2023-05-07T01:18:37;14.70;99.90
17599;DHT22;8918;52.092;5.232;2023-05-07T01:21:04;14.70;99.90
17599;DHT22;8918;52.092;5.232;2023-05-07T01:23:30;14.70;99.90
17599;DHT22;8918;52.092;5.232;2023-05-07T01:25:56;14.70;99.90
17599;DHT22;8918;52.092;5.232;2023-05-07T01:28:22;14.70;99.90
17599;DHT22;8918;52.092;5.232;2023-05-07T01:30:52;14.60;99.90
17599;DHT22;8918;52.092;5.232;2023-05-07T01:33:20;14.60;99.90
17599;DHT22;8918;52.092;5.232;2023-05-07T01:35:49;14.60;99.90
17599;DHT22;8918;52.092;5.232;2023-05-07T01:38:16;14.70;99.90
17599;DHT22;8918;52.092;5.232;2023-05-07T01:40:43;14.70;99.90
17599;DHT22;8918;52.092;5.232;2023-05-07T01:43:09;14.70;99.90
17599;DHT22;8918;52.092;5.232;2023-05-07T01:45:36;14.70;99.90
17599;DHT22;8918;52.092;5.232;2023-05-07T01:48:03;14.70;99.90
17599;DHT22;8918;52.092;5.232;2023-05-07T01:50:29;14.70;99.90
17599;DHT22;8918;52.092;5.232;2023-05-07T01:52:56;14.60;99.90
17599;DHT22;8918;52.092;5.232;2023-05-07T01:55:22;14.60;99.90
17599;DHT22;8918;52.092;5.232;2023-05-07T01:57:48;14.60;99.90
17599;DHT22;8918;52.092;5.232;2023-05-07T02:00:13;14.50;99.90
17599;DHT22;8918;52.092;5.232;2023-05-07T02:02:39;14.60;99.90
17599;DHT22;8918;52.092;5.232;2023-05-07T02:05:05;14.60;99.90
17599;DHT22;8918;52.092;5.232;2023-05-07T02:07:30;14.50;99.90
17599;DHT22;8918;52.092;5.232;2023-05-07T02:09:56;14.50;99.90
17599;DHT22;8918;52.092;5.232;2023-05-07T02:12:22;14.50;99.90
17599;DHT22;8918;52.092;5.232;2023-05-07T02:14:48;14.50;99.90
17599;DHT22;8918;52.092;5.232;2023-05-07T02:17:14;14.50;99.90
17599;DHT22;8918;52.092;5.232;2023-05-07T02:19:39;14.50;99.90
17599;DHT22;8918;52.092;5.232;2023-05-07T02:22:05;14.50;99.90
17599;DHT22;8918;52.092;5.232;2023-05-07T02:24:30;14.50;99.90
17599;DHT22;8918;52.092;5.232;2023-05-07T02:26:56;14.50;99.90
17599;DHT22;8918;52.092;5.232;2023-05-07T02:29:22;14.50;99.90
17599;DHT22;8918;52.092;5.232;2023-05-07T02:31:47;14.50;99.90
17599;DHT22;8918;52.092;5.232;2023-05-07T02:34:18;14.50;99.90
17599;DHT22;8918;52.092;5.232;2023-05-07T02:36:44;14.60;99.90
17599;DHT22;8918;52.092;5.232;2023-05-07T02:39:09;14.60;99.90
17599;DHT22;8918;52.092;5.232;2023-05-07T02:41:35;14.60;99.90
17599;DHT22;8918;52.092;5.232;2023-05-07T02:44:00;14.50;99.90
17599;DHT22;8918;52.092;5.232;2023-05-07T02:46:26;14.50;99.90
17599;DHT22;8918;52.092;5.232;2023-05-07T02:48:52;14.40;99.90
17599;DHT22;8918;52.092;5.232;2023-05-07T02:51:21;14.40;99.90
17599;DHT22;8918;52.092;5.232;2023-05-07T02:53:47;14.40;99.90
17599;DHT22;8918;52.092;5.232;2023-05-07T02:56:13;14.40;99.90
17599;DHT22;8918;52.092;5.232;2023-05-07T02:58:39;14.30;99.90
17599;DHT22;8918;52.092;5.232;2023-05-07T03:01:05;14.30;99.90
17599;DHT22;8918;52.092;5.232;2023-05-07T03:03:31;14.30;99.90
17599;DHT22;8918;52.092;5.232;2023-05-07T03:05:56;14.30;99.90
17599;DHT22;8918;52.092;5.232;2023-05-07T03:08:22;14.30;99.90
17599;DHT22;8918;52.092;5.232;2023-05-07T03:10:48;14.30;99.90
17599;DHT22;8918;52.092;5.232;2023-05-07T03:13:13;14.30;99.90
17599;DHT22;8918;52.092;5.232;2023-05-07T03:15:39;14.20;99.90
17599;DHT22;8918;52.092;5.232;2023-05-07T03:18:05;14.20;99.90
17599;DHT22;8918;52.092;5.232;2023-05-07T03:20:30;14.20;99.90
17599;DHT22;8918;52.092;5.232;2023-05-07T03:22:56;14.20;99.90
17599;DHT22;8918;52.092;5.232;2023-05-07T03:25:22;14.10;99.90
17599;DHT22;8918;52.092;5.232;2023-05-07T03:27:47;14.10;99.90
17599;DHT22;8918;52.092;5.232;2023-05-07T03:30:13;14.10;99.90
17599;DHT22;8918;52.092;5.232;2023-05-07T03:32:39;14.10;99.90
17599;DHT22;8918;52.092;5.232;2023-05-07T03:35:05;14.00;99.90
17599;DHT22;8918;52.092;5.232;2023-05-07T03:37:30;14.00;99.90
17599;DHT22;8918;52.092;5.232;2023-05-07T03:39:56;14.00;99.90
17599;DHT22;8918;52.092;5.232;2023-05-07T03:42:22;14.00;99.90
17599;DHT22;8918;52.092;5.232;2023-05-07T03:44:48;14.00;99.90
17599;DHT22;8918;52.092;5.232;2023-05-07T03:47:13;14.00;99.90
17599;DHT22;8918;52.092;5.232;2023-05-07T03:49:39;14.00;99.90
17599;DHT22;8918;52.092;5.232;2023-05-07T03:52:05;14.00;99.90
17599;DHT22;8918;52.092;5.232;2023-05-07T03:54:31;14.00;99.90
17599;DHT22;8918;52.092;5.232;2023-05-07T03:56:56;14.00;99.90
17599;DHT22;8918;52.092;5.232;2023-05-07T03:59:22;14.00;99.90
17599;DHT22;8918;52.092;5.232;2023-05-07T04:01:48;14.00;99.90
17599;DHT22;8918;52.092;5.232;2023-05-07T04:04:14;14.00;99.90
17599;DHT22;8918;52.092;5.232;2023-05-07T04:06:40;14.00;99.90
17599;DHT22;8918;52.092;5.232;2023-05-07T04:09:05;14.00;99.90
17599;DHT22;8918;52.092;5.232;2023-05-07T04:11:31;14.00;99.90
17599;DHT22;8918;52.092;5.232;2023-05-07T04:13:57;14.00;99.90
17599;DHT22;8918;52.092;5.232;2023-05-07T04:16:23;14.10;99.90
17599;DHT22;8918;52.092;5.232;2023-05-07T04:18:48;14.10;99.90
17599;DHT22;8918;52.092;5.232;2023-05-07T04:21:15;14.10;99.90
17599;DHT22;8918;52.092;5.232;2023-05-07T04:23:41;14.10;99.90
17599;DHT22;8918;52.092;5.232;2023-05-07T04:26:06;14.10;99.90
17599;DHT22;8918;52.092;5.232;2023-05-07T04:28:32;14.10;99.90
17599;DHT22;8918;52.092;5.232;2023-05-07T04:30:57;14.10;99.90
17599;DHT22;8918;52.092;5.232;2023-05-07T04:33:23;14.10;99.90
17599;DHT22;8918;52.092;5.232;2023-05-07T04:35:49;14.10;99.90
17599;DHT22;8918;52.092;5.232;2023-05-07T04:38:14;14.10;99.90
17599;DHT22;8918;52.092;5.232;2023-05-07T04:40:40;14.10;99.90
17599;DHT22;8918;52.092;5.232;2023-05-07T04:43:06;14.10;99.90
17599;DHT22;8918;52.092;5.232;2023-05-07T04:45:32;14.20;99.90
17599;DHT22;8918;52.092;5.232;2023-05-07T04:47:58;14.20;99.90
17599;DHT22;8918;52.092;5.232;2023-05-07T04:50:23;14.20;99.90
17599;DHT22;8918;52.092;5.232;2023-05-07T04:52:49;14.20;99.90
17599;DHT22;8918;52.092;5.232;2023-05-07T04:55:16;14.20;99.90
17599;DHT22;8918;52.092;5.232;2023-05-07T04:57:41;14.20;99.90
17599;DHT22;8918;52.092;5.232;2023-05-07T05:00:08;14.20;99.90
17599;DHT22;8918;52.092;5.232;2023-05-07T05:02:36;14.30;99.90
17599;DHT22;8918;52.092;5.232;2023-05-07T05:05:02;14.20;99.90
17599;DHT22;8918;52.092;5.232;2023-05-07T05:07:28;14.30;99.90
17599;DHT22;8918;52.092;5.232;2023-05-07T05:09:54;14.30;99.90
17599;DHT22;8918;52.092;5.232;2023-05-07T05:12:20;14.30;99.90
17599;DHT22;8918;52.092;5.232;2023-05-07T05:14:46;14.30;99.90
17599;DHT22;8918;52.092;5.232;2023-05-07T05:17:12;14.40;99.90
17599;DHT22;8918;52.092;5.232;2023-05-07T05:19:37;14.40;99.90
17599;DHT22;8918;52.092;5.232;2023-05-07T05:22:03;14.30;99.90
17599;DHT22;8918;52.092;5.232;2023-05-07T05:24:30;14.30;99.90
17599;DHT22;8918;52.092;5.232;2023-05-07T05:26:55;14.40;99.90
17599;DHT22;8918;52.092;5.232;2023-05-07T05:29:21;14.40;99.90
17599;DHT22;8918;52.092;5.232;2023-05-07T05:31:47;14.40;99.90
17599;DHT22;8918;52.092;5.232;2023-05-07T05:34:13;14.40;99.90
17599;DHT22;8918;52.092;5.232;2023-05-07T05:36:38;14.40;99.90
17599;DHT22;8918;52.092;5.232;2023-05-07T05:39:04;14.30;99.90
17599;DHT22;8918;52.092;5.232;2023-05-07T05:41:30;14.30;99.90
17599;DHT22;8918;52.092;5.232;2023-05-07T05:43:55;14.30;99.90
17599;DHT22;8918;52.092;5.232;2023-05-07T05:46:21;14.40;99.90
17599;DHT22;8918;52.092;5.232;2023-05-07T05:48:46;14.40;99.90
17599;DHT22;8918;52.092;5.232;2023-05-07T05:51:12;14.40;99.90
17599;DHT22;8918;52.092;5.232;2023-05-07T05:53:38;14.40;99.90
17599;DHT22;8918;52.092;5.232;2023-05-07T05:56:04;14.30;99.90
17599;DHT22;8918;52.092;5.232;2023-05-07T05:58:29;14.40;99.90
17599;DHT22;8918;52.092;5.232;2023-05-07T06:00:55;14.40;99.90
17599;DHT22;8918;52.092;5.232;2023-05-07T06:03:22;14.30;99.90
17599;DHT22;8918;52.092;5.232;2023-05-07T06:05:47;14.40;99.90
17599;DHT22;8918;52.092;5.232;2023-05-07T06:08:13;14.40;99.90
17599;DHT22;8918;52.092;5.232;2023-05-07T06:10:39;14.40;99.90
17599;DHT22;8918;52.092;5.232;2023-05-07T06:13:04;14.40;99.90
17599;DHT22;8918;52.092;5.232;2023-05-07T06:15:30;14.50;99.90
17599;DHT22;8918;52.092;5.232;2023-05-07T06:17:56;14.50;99.90
17599;DHT22;8918;52.092;5.232;2023-05-07T06:20:23;14.60;99.90
17599;DHT22;8918;52.092;5.232;2023-05-07T06:22:48;14.60;99.90
17599;DHT22;8918;52.092;5.232;2023-05-07T06:25:14;14.70;99.90
17599;DHT22;8918;52.092;5.232;2023-05-07T06:27:40;14.70;99.90
17599;DHT22;8918;52.092;5.232;2023-05-07T06:30:06;14.70;99.90
17599;DHT22;8918;52.092;5.232;2023-05-07T06:32:32;14.80;99.90
17599;DHT22;8918;52.092;5.232;2023-05-07T06:34:58;14.90;99.90
17599;DHT22;8918;52.092;5.232;2023-05-07T06:37:23;15.00;99.90
17599;DHT22;8918;52.092;5.232;2023-05-07T06:39:49;15.10;99.90
17599;DHT22;8918;52.092;5.232;2023-05-07T06:42:14;15.10;99.90
17599;DHT22;8918;52.092;5.232;2023-05-07T06:44:40;15.10;99.90
17599;DHT22;8918;52.092;5.232;2023-05-07T06:47:06;15.20;99.90
17599;DHT22;8918;52.092;5.232;2023-05-07T06:49:31;15.20;99.90
17599;DHT22;8918;52.092;5.232;2023-05-07T06:51:57;15.20;99.90
17599;DHT22;8918;52.092;5.232;2023-05-07T06:54:23;15.20;99.90
17599;DHT22;8918;52.092;5.232;2023-05-07T06:56:49;15.30;99.90
17599;DHT22;8918;52.092;5.232;2023-05-07T06:59:15;15.30;99.90
17599;DHT22;8918;52.092;5.232;2023-05-07T07:01:40;15.30;99.90
17599;DHT22;8918;52.092;5.232;2023-05-07T07:04:06;15.30;99.90
17599;DHT22;8918;52.092;5.232;2023-05-07T07:06:32;15.30;99.90
17599;DHT22;8918;52.092;5.232;2023-05-07T07:08:58;15.30;99.90
17599;DHT22;8918;52.092;5.232;2023-05-07T07:11:24;15.30;99.90
17599;DHT22;8918;52.092;5.232;2023-05-07T07:13:49;15.40;99.90
17599;DHT22;8918;52.092;5.232;2023-05-07T07:16:16;15.30;99.90
17599;DHT22;8918;52.092;5.232;2023-05-07T07:18:41;15.40;99.90
17599;DHT22;8918;52.092;5.232;2023-05-07T07:21:07;15.40;99.90
17599;DHT22;8918;52.092;5.232;2023-05-07T07:23:33;15.40;99.90
17599;DHT22;8918;52.092;5.232;2023-05-07T07:25:58;15.40;99.90
17599;DHT22;8918;52.092;5.232;2023-05-07T07:28:24;15.50;99.90
17599;DHT22;8918;52.092;5.232;2023-05-07T07:30:49;15.50;99.90
17599;DHT22;8918;52.092;5.232;2023-05-07T07:33:15;15.60;99.90
17599;DHT22;8918;52.092;5.232;2023-05-07T07:35:41;15.70;99.90
17599;DHT22;8918;52.092;5.232;2023-05-07T07:38:06;15.70;99.90
17599;DHT22;8918;52.092;5.232;2023-05-07T07:40:34;15.70;99.90
17599;DHT22;8918;52.092;5.232;2023-05-07T07:43:00;15.70;99.90
17599;DHT22;8918;52.092;5.232;2023-05-07T07:45:26;15.70;99.90
17599;DHT22;8918;52.092;5.232;2023-05-07T07:47:52;15.80;99.90
17599;DHT22;8918;52.092;5.232;2023-05-07T07:50:18;15.80;99.90
17599;DHT22;8918;52.092;5.232;2023-05-07T07:52:43;15.90;99.90
17599;DHT22;8918;52.092;5.232;2023-05-07T07:55:09;15.90;99.90
17599;DHT22;8918;52.092;5.232;2023-05-07T07:57:35;15.90;99.90
17599;DHT22;8918;52.092;5.232;2023-05-07T08:00:01;16.00;99.90
17599;DHT22;8918;52.092;5.232;2023-05-07T08:02:26;16.00;99.90
17599;DHT22;8918;52.092;5.232;2023-05-07T08:04:52;16.00;99.90
17599;DHT22;8918;52.092;5.232;2023-05-07T08:07:17;16.00;99.90
17599;DHT22;8918;52.092;5.232;2023-05-07T08:09:45;16.00;99.90
17599;DHT22;8918;52.092;5.232;2023-05-07T08:12:11;16.10;99.90
17599;DHT22;8918;52.092;5.232;2023-05-07T08:14:37;16.10;99.90
17599;DHT22;8918;52.092;5.232;2023-05-07T08:17:03;16.20;99.90
17599;DHT22;8918;52.092;5.232;2023-05-07T08:19:28;16.30;99.90
17599;DHT22;8918;52.092;5.232;2023-05-07T08:21:54;16.30;99.90
17599;DHT22;8918;52.092;5.232;2023-05-07T08:24:20;16.30;99.90
17599;DHT22;8918;52.092;5.232;2023-05-07T08:26:46;16.40;99.90
17599;DHT22;8918;52.092;5.232;2023-05-07T08:29:12;16.40;99.90
17599;DHT22;8918;52.092;5.232;2023-05-07T08:31:37;16.50;99.90
17599;DHT22;8918;52.092;5.232;2023-05-07T08:34:06;16.50;99.90
17599;DHT22;8918;52.092;5.232;2023-05-07T08:36:32;16.50;99.90
17599;DHT22;8918;52.092;5.232;2023-05-07T08:38:59;16.50;99.90
17599;DHT22;8918;52.092;5.232;2023-05-07T08:41:25;16.60;99.90
17599;DHT22;8918;52.092;5.232;2023-05-07T08:43:51;16.70;99.90
17599;DHT22;8918;52.092;5.232;2023-05-07T08:46:21;16.70;99.90
17599;DHT22;8918;52.092;5.232;2023-05-07T08:48:50;16.70;99.90
17599;DHT22;8918;52.092;5.232;2023-05-07T08:51:19;16.80;99.90
17599;DHT22;8918;52.092;5.232;2023-05-07T08:53:45;16.80;99.90
17599;DHT22;8918;52.092;5.232;2023-05-07T08:56:11;16.80;99.90
17599;DHT22;8918;52.092;5.232;2023-05-07T08:58:37;16.90;99.90
17599;DHT22;8918;52.092;5.232;2023-05-07T09:01:12;16.90;99.90
17599;DHT22;8918;52.092;5.232;2023-05-07T09:03:39;17.10;99.90
17599;DHT22;8918;52.092;5.232;2023-05-07T09:06:04;17.20;99.90
17599;DHT22;8918;52.092;5.232;2023-05-07T09:08:32;17.30;99.90
17599;DHT22;8918;52.092;5.232;2023-05-07T09:10:59;17.30;99.90
17599;DHT22;8918;52.092;5.232;2023-05-07T09:13:24;17.40;99.90
17599;DHT22;8918;52.092;5.232;2023-05-07T09:15:50;17.40;99.90
17599;DHT22;8918;52.092;5.232;2023-05-07T09:18:16;17.50;99.90
17599;DHT22;8918;52.092;5.232;2023-05-07T09:20:42;17.70;99.90
17599;DHT22;8918;52.092;5.232;2023-05-07T09:23:08;17.80;99.90
17599;DHT22;8918;52.092;5.232;2023-05-07T09:25:34;17.90;99.90
17599;DHT22;8918;52.092;5.232;2023-05-07T09:28:01;17.90;99.90
17599;DHT22;8918;52.092;5.232;2023-05-07T09:30:31;18.00;99.90
17599;DHT22;8918;52.092;5.232;2023-05-07T09:33:02;18.10;99.90
17599;DHT22;8918;52.092;5.232;2023-05-07T09:35:28;18.20;99.90
17599;DHT22;8918;52.092;5.232;2023-05-07T09:37:55;18.30;99.90
17599;DHT22;8918;52.092;5.232;2023-05-07T09:40:23;18.30;99.90
17599;DHT22;8918;52.092;5.232;2023-05-07T09:42:49;18.30;99.90
17599;DHT22;8918;52.092;5.232;2023-05-07T09:45:28;18.40;99.90
17599;DHT22;8918;52.092;5.232;2023-05-07T09:47:55;18.30;99.90
17599;DHT22;8918;52.092;5.232;2023-05-07T09:50:26;18.20;99.90
17599;DHT22;8918;52.092;5.232;2023-05-07T09:52:54;18.30;99.90
17599;DHT22;8918;52.092;5.232;2023-05-07T09:55:20;18.30;99.90
17599;DHT22;8918;52.092;5.232;2023-05-07T09:57:49;18.40;99.90
17599;DHT22;8918;52.092;5.232;2023-05-07T10:00:17;18.80;99.90
17599;DHT22;8918;52.092;5.232;2023-05-07T10:02:45;19.20;99.90
17599;DHT22;8918;52.092;5.232;2023-05-07T10:05:14;19.60;99.90
17599;DHT22;8918;52.092;5.232;2023-05-07T10:07:41;19.70;99.90
17599;DHT22;8918;52.092;5.232;2023-05-07T10:10:07;19.70;99.90
17599;DHT22;8918;52.092;5.232;2023-05-07T10:12:33;19.70;99.90
17599;DHT22;8918;52.092;5.232;2023-05-07T10:17:31;19.80;99.90
17599;DHT22;8918;52.092;5.232;2023-05-07T10:19:57;20.00;99.90
17599;DHT22;8918;52.092;5.232;2023-05-07T10:22:23;20.30;99.90
17599;DHT22;8918;52.092;5.232;2023-05-07T10:24:52;20.40;99.90
17599;DHT22;8918;52.092;5.232;2023-05-07T10:27:21;20.60;99.90
17599;DHT22;8918;52.092;5.232;2023-05-07T10:29:53;20.70;99.90
17599;DHT22;8918;52.092;5.232;2023-05-07T10:32:47;20.90;99.90
17599;DHT22;8918;52.092;5.232;2023-05-07T10:35:38;21.00;99.90
17599;DHT22;8918;52.092;5.232;2023-05-07T10:38:06;21.10;99.90
17599;DHT22;8918;52.092;5.232;2023-05-07T10:40:32;21.10;99.90
17599;DHT22;8918;52.092;5.232;2023-05-07T10:43:00;21.00;99.90
17599;DHT22;8918;52.092;5.232;2023-05-07T10:45:26;20.90;99.90
17599;DHT22;8918;52.092;5.232;2023-05-07T10:48:12;20.90;99.90
17599;DHT22;8918;52.092;5.232;2023-05-07T10:50:43;21.00;99.90
17599;DHT22;8918;52.092;5.232;2023-05-07T10:55:51;21.40;99.90
17599;DHT22;8918;52.092;5.232;2023-05-07T10:58:30;21.60;99.90
17599;DHT22;8918;52.092;5.232;2023-05-07T11:00:58;21.80;99.90
17599;DHT22;8918;52.092;5.232;2023-05-07T11:03:27;21.90;99.90
17599;DHT22;8918;52.092;5.232;2023-05-07T11:06:13;21.90;99.90
17599;DHT22;8918;52.092;5.232;2023-05-07T11:08:58;22.00;99.90
17599;DHT22;8918;52.092;5.232;2023-05-07T11:14:11;22.20;99.90
17599;DHT22;8918;52.092;5.232;2023-05-07T11:16:37;22.00;99.90
17599;DHT22;8918;52.092;5.232;2023-05-07T11:19:04;22.10;99.90
17599;DHT22;8918;52.092;5.232;2023-05-07T11:21:40;22.00;99.90
17599;DHT22;8918;52.092;5.232;2023-05-07T11:24:09;21.90;99.90
17599;DHT22;8918;52.092;5.232;2023-05-07T11:26:47;21.70;99.90
17599;DHT22;8918;52.092;5.232;2023-05-07T11:29:17;21.70;99.90
17599;DHT22;8918;52.092;5.232;2023-05-07T11:31:43;21.70;99.90
17599;DHT22;8918;52.092;5.232;2023-05-07T11:34:09;21.60;99.90
17599;DHT22;8918;52.092;5.232;2023-05-07T11:36:36;21.70;99.90
17599;DHT22;8918;52.092;5.232;2023-05-07T11:39:06;21.80;99.90
17599;DHT22;8918;52.092;5.232;2023-05-07T11:41:48;21.90;99.90
17599;DHT22;8918;52.092;5.232;2023-05-07T11:44:13;22.10;99.90
17599;DHT22;8918;52.092;5.232;2023-05-07T11:46:43;22.10;99.90
17599;DHT22;8918;52.092;5.232;2023-05-07T11:49:09;22.00;99.90
17599;DHT22;8918;52.092;5.232;2023-05-07T11:51:35;22.10;99.90
17599;DHT22;8918;52.092;5.232;2023-05-07T11:54:03;22.40;99.90
17599;DHT22;8918;52.092;5.232;2023-05-07T11:56:29;22.80;99.90
17599;DHT22;8918;52.092;5.232;2023-05-07T11:58:54;23.30;99.90
17599;DHT22;8918;52.092;5.232;2023-05-07T12:01:20;24.00;99.90
17599;DHT22;8918;52.092;5.232;2023-05-07T12:03:46;24.10;99.90
17599;DHT22;8918;52.092;5.232;2023-05-07T12:06:13;24.00;99.90
17599;DHT22;8918;52.092;5.232;2023-05-07T12:08:41;24.10;99.90
17599;DHT22;8918;52.092;5.232;2023-05-07T12:11:08;24.20;99.90
17599;DHT22;8918;52.092;5.232;2023-05-07T12:13:35;24.20;99.90
17599;DHT22;8918;52.092;5.232;2023-05-07T12:16:01;24.00;99.90
17599;DHT22;8918;52.092;5.232;2023-05-07T12:18:28;23.60;99.90
17599;DHT22;8918;52.092;5.232;2023-05-07T12:20:55;23.40;99.90
17599;DHT22;8918;52.092;5.232;2023-05-07T12:23:21;23.30;99.90
17599;DHT22;8918;52.092;5.232;2023-05-07T12:25:47;23.20;99.90
17599;DHT22;8918;52.092;5.232;2023-05-07T12:28:17;23.00;99.90
17599;DHT22;8918;52.092;5.232;2023-05-07T12:30:44;22.80;99.90
17599;DHT22;8918;52.092;5.232;2023-05-07T12:33:10;22.60;99.90
17599;DHT22;8918;52.092;5.232;2023-05-07T12:35:38;22.50;99.90
17599;DHT22;8918;52.092;5.232;2023-05-07T12:38:12;22.50;99.90
17599;DHT22;8918;52.092;5.232;2023-05-07T12:40:38;22.50;99.90
17599;DHT22;8918;52.092;5.232;2023-05-07T12:43:04;22.50;99.90
17599;DHT22;8918;52.092;5.232;2023-05-07T12:45:30;22.60;99.90
17599;DHT22;8918;52.092;5.232;2023-05-07T12:47:56;22.90;99.90
17599;DHT22;8918;52.092;5.232;2023-05-07T12:50:26;22.90;99.90
17599;DHT22;8918;52.092;5.232;2023-05-07T12:52:55;22.90;99.90
17599;DHT22;8918;52.092;5.232;2023-05-07T12:55:21;22.80;99.90
17599;DHT22;8918;52.092;5.232;2023-05-07T12:57:50;22.70;99.90
17599;DHT22;8918;52.092;5.232;2023-05-07T13:00:17;22.50;99.90
17599;DHT22;8918;52.092;5.232;2023-05-07T13:02:43;22.50;99.90
17599;DHT22;8918;52.092;5.232;2023-05-07T13:05:12;22.40;99.90
17599;DHT22;8918;52.092;5.232;2023-05-07T13:07:37;22.30;99.90
17599;DHT22;8918;52.092;5.232;2023-05-07T13:10:04;22.20;99.90
17599;DHT22;8918;52.092;5.232;2023-05-07T13:12:29;22.20;99.90
17599;DHT22;8918;52.092;5.232;2023-05-07T13:14:55;22.10;99.90
17599;DHT22;8918;52.092;5.232;2023-05-07T13:17:21;22.20;99.90
17599;DHT22;8918;52.092;5.232;2023-05-07T13:19:46;22.10;99.90
17599;DHT22;8918;52.092;5.232;2023-05-07T13:22:12;22.10;99.90
17599;DHT22;8918;52.092;5.232;2023-05-07T13:24:37;22.20;99.90
17599;DHT22;8918;52.092;5.232;2023-05-07T13:27:03;22.20;99.90
17599;DHT22;8918;52.092;5.232;2023-05-07T13:29:29;22.30;99.90
17599;DHT22;8918;52.092;5.232;2023-05-07T13:31:56;22.40;99.90
17599;DHT22;8918;52.092;5.232;2023-05-07T13:34:22;22.40;99.90
17599;DHT22;8918;52.092;5.232;2023-05-07T13:36:48;22.50;99.90
17599;DHT22;8918;52.092;5.232;2023-05-07T13:39:13;22.30;99.90
17599;DHT22;8918;52.092;5.232;2023-05-07T13:41:39;22.30;99.90
17599;DHT22;8918;52.092;5.232;2023-05-07T13:44:05;22.40;99.90
17599;DHT22;8918;52.092;5.232;2023-05-07T13:46:30;22.50;99.90
17599;DHT22;8918;52.092;5.232;2023-05-07T13:48:56;22.60;99.90
17599;DHT22;8918;52.092;5.232;2023-05-07T13:51:22;22.70;99.90
17599;DHT22;8918;52.092;5.232;2023-05-07T13:53:48;22.70;99.90
17599;DHT22;8918;52.092;5.232;2023-05-07T13:56:14;22.70;99.90
17599;DHT22;8918;52.092;5.232;2023-05-07T13:58:40;22.60;99.90
17599;DHT22;8918;52.092;5.232;2023-05-07T14:01:06;22.50;99.90
17599;DHT22;8918;52.092;5.232;2023-05-07T14:03:31;22.50;99.90
17599;DHT22;8918;52.092;5.232;2023-05-07T14:05:59;22.50;99.90
17599;DHT22;8918;52.092;5.232;2023-05-07T14:08:25;22.60;99.90
17599;DHT22;8918;52.092;5.232;2023-05-07T14:10:51;22.70;99.90
17599;DHT22;8918;52.092;5.232;2023-05-07T14:13:17;22.80;99.90
17599;DHT22;8918;52.092;5.232;2023-05-07T14:15:42;22.70;99.90
17599;DHT22;8918;52.092;5.232;2023-05-07T14:18:12;22.70;99.90
17599;DHT22;8918;52.092;5.232;2023-05-07T14:20:37;22.80;99.90
17599;DHT22;8918;52.092;5.232;2023-05-07T14:23:03;22.70;99.90
17599;DHT22;8918;52.092;5.232;2023-05-07T14:25:29;22.60;99.90
17599;DHT22;8918;52.092;5.232;2023-05-07T14:27:54;22.50;99.90
17599;DHT22;8918;52.092;5.232;2023-05-07T14:30:20;22.30;99.90
17599;DHT22;8918;52.092;5.232;2023-05-07T14:32:48;22.30;99.90
17599;DHT22;8918;52.092;5.232;2023-05-07T14:35:14;22.10;99.90
17599;DHT22;8918;52.092;5.232;2023-05-07T14:37:39;22.00;99.90
17599;DHT22;8918;52.092;5.232;2023-05-07T14:40:05;21.80;99.90
17599;DHT22;8918;52.092;5.232;2023-05-07T14:42:31;21.70;99.90
17599;DHT22;8918;52.092;5.232;2023-05-07T14:44:57;21.60;99.90
17599;DHT22;8918;52.092;5.232;2023-05-07T14:47:23;21.40;99.90
17599;DHT22;8918;52.092;5.232;2023-05-07T14:49:48;21.30;99.90
17599;DHT22;8918;52.092;5.232;2023-05-07T14:52:14;21.20;99.90
17599;DHT22;8918;52.092;5.232;2023-05-07T14:54:39;21.10;99.90
17599;DHT22;8918;52.092;5.232;2023-05-07T14:57:06;20.90;99.90
17599;DHT22;8918;52.092;5.232;2023-05-07T14:59:32;20.80;99.90
17599;DHT22;8918;52.092;5.232;2023-05-07T15:01:57;20.60;99.90
17599;DHT22;8918;52.092;5.232;2023-05-07T15:04:24;20.10;99.90
17599;DHT22;8918;52.092;5.232;2023-05-07T15:06:50;19.60;99.90
17599;DHT22;8918;52.092;5.232;2023-05-07T15:09:15;19.20;99.90
17599;DHT22;8918;52.092;5.232;2023-05-07T15:11:41;19.00;99.90
17599;DHT22;8918;52.092;5.232;2023-05-07T15:14:06;18.80;99.90
17599;DHT22;8918;52.092;5.232;2023-05-07T15:16:32;18.50;99.90
17599;DHT22;8918;52.092;5.232;2023-05-07T15:18:59;18.20;99.90
17599;DHT22;8918;52.092;5.232;2023-05-07T15:21:24;17.70;99.90
17599;DHT22;8918;52.092;5.232;2023-05-07T15:23:52;17.50;99.90
17599;DHT22;8918;52.092;5.232;2023-05-07T15:26:17;17.20;99.90
17599;DHT22;8918;52.092;5.232;2023-05-07T15:28:43;17.10;99.90
17599;DHT22;8918;52.092;5.232;2023-05-07T15:31:08;17.00;99.90
17599;DHT22;8918;52.092;5.232;2023-05-07T15:33:34;17.00;99.90
17599;DHT22;8918;52.092;5.232;2023-05-07T15:36:00;16.90;99.90
17599;DHT22;8918;52.092;5.232;2023-05-07T15:38:26;16.90;99.90
17599;DHT22;8918;52.092;5.232;2023-05-07T15:40:52;16.90;99.90
17599;DHT22;8918;52.092;5.232;2023-05-07T15:43:17;16.80;99.90
17599;DHT22;8918;52.092;5.232;2023-05-07T15:45:44;16.80;99.90
17599;DHT22;8918;52.092;5.232;2023-05-07T15:48:10;16.80;99.90